Погода Булу-Ориентена неделю

Минас-Жерайс, Бразилия

15 - 21 июля
  • 15июля
    Сегодня
    +14°
    +28°
    Практически безоблачно
    ВремяПогодаТемператураВлажностьДавлениеВетер, м/сВероятность осадков
    00:00Ясно и безоблачно+15°C66 %740 мм0.6 м/с5 %
    03:00Ясно и безоблачно+13°C72 %740 мм0.8 м/с5 %
    06:00Ясно и безоблачно+13°C76 %740 мм0.8 м/с5 %
    09:00Ясно и безоблачно+20°C59 %742 мм0.5 м/с5 %
    12:00Ясно и безоблачно+26°C43 %741 мм2.0 м/с5 %
    15:00Практически безоблачно+27°C36 %740 мм1.5 м/с5 %
    18:00Ясно и безоблачно+18°C55 %739 мм0.7 м/с5 %
    21:00Ясно и безоблачно+16°C61 %740 мм0.9 м/с5 %
  • 16июля
    Вторник
    +14°
    +28°
    Небольшая облачность
    ВремяПогодаТемператураВлажностьДавлениеВетер, м/сВероятность осадков
    00:00Практически безоблачно+15°C61 %741 мм1.4 м/с5 %
    03:00Облачно с прояснениями+15°C71 %740 мм1.4 м/с5 %
    06:00Облачно с прояснениями+15°C82 %741 мм0.3 м/с6 %
    09:00Небольшая облачность+21°C70 %743 мм1.8 м/с23 %
    12:00Облачно с прояснениями+26°C46 %742 мм2.2 м/с8 %
    15:00Небольшая облачность+27°C39 %740 мм2.2 м/с5 %
    18:00Практически безоблачно+19°C54 %740 мм1.3 м/с5 %
    21:00Практически безоблачно+16°C69 %741 мм0.7 м/с4 %
  • 17июля
    Среда
    +11°
    +28°
    Облачно с прояснениями
    ВремяПогодаТемператураВлажностьДавлениеВетер, м/сВероятность осадков
    00:00Практически безоблачно+15°C70 %742 мм0.7 м/с5 %
    03:00Практически безоблачно+15°C82 %741 мм1.3 м/с5 %
    06:00Ясно и безоблачно+15°C91 %741 мм0.5 м/с7 %
    09:00Облачно с прояснениями+21°C70 %743 мм1.9 м/с14 %
    12:00Практически безоблачно+26°C50 %742 мм1.4 м/с18 %
    15:00Облачно с прояснениями+27°C42 %739 мм1.1 м/с7 %
    18:00Ясно и безоблачно+19°C56 %739 мм1.4 м/с5 %
    21:00Ясно и безоблачно+17°C65 %739 мм0.6 м/с5 %
  • 18июля
    Четверг
    +12°
    +29°
    Практически безоблачно
    ВремяПогодаТемператураВлажностьДавлениеВетер, м/сВероятность осадков
    00:00Ясно и безоблачно+13°C73 %739 мм1.1 м/с5 %
    03:00Ясно и безоблачно+13°C81 %738 мм0.3 м/с5 %
    06:00Ясно и безоблачно+13°C83 %739 мм0.4 м/с5 %
    09:00Облачно с прояснениями+20°C66 %741 мм0.5 м/с5 %
    12:00Облачно с прояснениями+26°C46 %740 мм1.0 м/с5 %
    15:00Практически безоблачно+28°C36 %738 мм0.9 м/с5 %
    18:00Ясно и безоблачно+20°C45 %737 мм1.4 м/с5 %
    21:00Ясно и безоблачно+16°C62 %738 мм0.6 м/с5 %
  • 19июля
    Пятница
    +13°
    +29°
    Практически безоблачно
    ВремяПогодаТемператураВлажностьДавлениеВетер, м/сВероятность осадков
    00:00Ясно и безоблачно+14°C63 %739 мм1.1 м/с5 %
    03:00Ясно и безоблачно+13°C75 %738 мм1.1 м/с5 %
    06:00Ясно и безоблачно+13°C75 %740 мм0.9 м/с5 %
    09:00Ясно и безоблачно+21°C54 %742 мм1.2 м/с5 %
    12:00Ясно и безоблачно+26°C43 %741 мм1.5 м/с3 %
    15:00Практически безоблачно+29°C36 %739 мм1.3 м/с5 %
    18:00Практически безоблачно+20°C52 %739 мм1.1 м/с5 %
    21:00Практически безоблачно+17°C63 %740 мм0.6 м/с5 %
Мы используем cookies
Соглашаюсь